Latest Weather Observations for Nambour

IDQ60801

Issued at 8:35 pm EST Wednesday 20 August 2014 (issued every 30 minutes, with the page automatically refreshed every 10 minutes)

About weather observations | Map of weather stations | Latest weather observations for QLD | Other Formats
Station Details ID: 040988 Name: NAMBOUR DAFF - HILLSIDE Lat: -26.64 Lon: 152.94 Height: 53.24 m
Data from the previous 72 hours. | See also: Recent months at Nambour
Date/Time
EST
Temp
°C
App
Temp
°C
Dew
Point
Rel
Hum
%
Delta-T
°C
Wind Press
QNH
hPa
Press
MSL
hPa
Rain
since 9 am
mm
Dir
 
Spd
km/h
Gust
km/h
Spd
kts
Gust
kts
20/08:30pm 15.1 14.8 11.5 79 1.9 SSW 4 6 2 3 1022.2 1022.2 0.0
20/08:00pm 15.1 15.3 11.7 80 1.8 WSW 2 7 1 4 1022.2 1022.2 0.0
20/07:30pm 15.2 15.3 11.4 78 2.0 SW 2 6 1 3 1021.9 1021.9 0.0
20/07:00pm 15.4 15.4 11.2 76 2.2 SSW 2 6 1 3 1021.5 1021.5 0.0
20/06:30pm 15.9 16.3 11.3 74 2.5 CALM 0 0 0 0 1021.1 1021.1 0.0
20/06:00pm 16.6 16.9 10.9 69 3.0 CALM 0 4 0 2 1020.4 1020.4 0.0
20/05:30pm 17.6 16.7 10.7 64 3.7 ESE 6 9 3 5 1019.8 1019.8 0.0
20/05:00pm 18.6 17.7 10.7 60 4.3 E 6 11 3 6 1019.3 1019.3 0.0
20/04:30pm 19.3 17.7 10.3 56 4.8 E 9 17 5 9 1018.9 1018.9 0.0
20/04:00pm 19.9 17.7 9.2 50 5.7 ESE 11 24 6 13 1018.7 1018.7 0.0
20/03:30pm 20.4 18.2 9.3 49 5.9 E 11 20 6 11 1018.5 1018.5 0.0
20/03:00pm 20.6 18.0 9.2 48 6.0 ESE 13 20 7 11 1018.2 1018.2 0.0
20/02:30pm 19.8 18.3 9.1 50 5.7 E 7 15 4 8 1018.3 1018.3 0.0
20/02:00pm 20.0 18.5 9.0 49 5.8 ESE 7 15 4 8 1018.3 1018.3 0.0
20/01:30pm 21.1 19.6 9.0 46 6.4 ESE 7 15 4 8 1018.3 1018.3 0.0
20/01:00pm 20.7 18.9 8.0 44 6.6 ESE 7 13 4 7 1018.6 1018.6 0.0
20/12:30pm 21.6 19.8 9.5 46 6.5 E 9 22 5 12 1018.8 1018.8 0.0
20/12:00pm 21.4 19.4 8.7 44 6.7 ESE 9 19 5 10 1019.0 1019.0 0.0
20/11:30am 21.1 18.8 9.0 46 6.4 ESE 11 19 6 10 1019.2 1019.2 0.0
20/11:00am 21.1 19.6 9.0 46 6.4 ESE 7 13 4 7 1019.7 1019.7 0.0
20/10:30am 20.0 18.0 8.7 48 5.9 ESE 9 17 5 9 1019.9 1019.9 0.0
20/10:00am 19.8 17.6 7.9 46 6.1 SE 9 19 5 10 1020.0 1020.0 0.0
20/09:30am 19.6 18.1 8.3 48 5.9 SW 6 13 3 7 1019.9 1019.9 0.0
20/09:00am 18.7 16.8 7.5 48 5.7 SW 7 15 4 8 1020.1 1020.1 0.0
20/08:30am 18.0 16.2 7.1 49 5.5 SW 6 13 3 7 1020.0 1020.0 0.0
20/08:00am 17.1 16.5 9.0 59 4.2 E 2 7 1 4 1019.9 1019.9 0.0
20/07:30am 15.0 14.5 9.4 69 2.9 WSW 2 6 1 3 1019.5 1019.5 0.0
20/07:00am 11.6 11.4 9.0 84 1.3 CALM 0 6 0 3 1019.2 1019.2 0.0
20/06:30am 9.7 9.1 7.3 85 1.1 CALM 0 2 0 1 1019.1 1019.1 0.0
20/06:00am 10.1 9.6 7.7 85 1.2 WSW 0 0 0 0 1018.8 1018.8 0.0
20/05:30am 9.5 8.8 7.1 85 1.1 CALM 0 0 0 0 1018.0 1018.0 0.0
20/05:00am 10.8 9.9 7.9 82 1.4 WSW 2 4 1 2 1017.6 1017.6 0.0
20/04:30am 10.3 9.7 7.2 81 1.5 CALM 0 0 0 0 1017.4 1017.4 0.0
20/04:00am 11.0 10.5 7.7 80 1.6 CALM 0 0 0 0 1017.1 1017.0 0.0
20/03:30am 12.0 11.4 7.3 73 2.3 CALM 0 0 0 0 1017.0 1016.9 0.0
20/03:00am 11.6 11.0 7.3 75 2.1 CALM 0 0 0 0 1016.7 1016.6 0.0
20/02:30am 14.0 12.7 7.5 65 3.2 SW 4 7 2 4 1016.7 1016.6 0.0
20/02:00am 13.3 12.3 7.3 67 2.9 WSW 2 11 1 6 1016.6 1016.5 0.0
20/01:30am 13.5 12.9 7.5 67 2.9 CALM 0 0 0 0 1016.8 1016.7 0.0
20/01:00am 14.4 13.0 7.2 62 3.5 SSW 4 6 2 3 1016.8 1016.7 0.0
20/12:30am 14.6 13.6 7.4 62 3.6 WSW 2 4 1 2 1016.8 1016.7 0.0
20/12:00am 15.0 13.2 7.1 59 3.9 WSW 6 11 3 6 1016.5 1016.4 0.0
 
Date/Time
EST
Temp
°C
App
Temp
°C
Dew
Point
Rel
Hum
%
Delta-T
°C
Wind Press
QNH
hPa
Press
MSL
hPa
Rain
since 9 am
mm
Dir
 
Spd
km/h
Gust
km/h
Spd
kts
Gust
kts
19/11:30pm 15.2 13.7 7.0 58 4.0 SW 4 9 2 5 1016.4 1016.3 0.0
19/11:00pm 15.1 14.0 6.7 57 4.1 SW 2 6 1 3 1016.5 1016.4 0.0
19/10:30pm 15.5 13.9 6.5 55 4.4 SSW 4 9 2 5 1016.4 1016.3 0.0
19/10:00pm 16.3 13.4 6.4 52 4.8 WSW 11 17 6 9 1016.4 1016.3 0.0
19/09:30pm 15.5 13.9 6.2 54 4.5 WSW 4 15 2 8 1016.5 1016.4 0.0
19/09:00pm 16.2 14.2 6.3 52 4.8 W 6 15 3 8 1016.3 1016.2 0.0
19/08:30pm 15.4 14.5 5.9 53 4.6 CALM 0 6 0 3 1016.4 1016.3 0.0
19/08:00pm 16.8 15.0 5.4 47 5.5 E 4 7 2 4 1016.1 1016.0 0.0
19/07:30pm 17.8 15.1 5.4 44 6.0 W 9 22 5 12 1015.5 1015.4 0.0
19/07:00pm 16.7 15.0 5.9 49 5.2 SW 4 9 2 5 1015.2 1015.1 0.0
19/06:30pm 17.7 16.3 5.6 45 5.9 ESE 2 6 1 3 1014.7 1014.6 0.0
19/06:00pm 18.6 16.7 5.1 41 6.5 WSW 4 9 2 5 1014.0 1013.9 0.0
19/05:30pm 19.3 16.6 5.4 40 6.8 W 9 19 5 10 1013.5 1013.4 0.0
19/05:00pm 20.3 17.5 5.1 37 7.5 W 9 19 5 10 1013.1 1013.0 0.0
19/04:30pm 20.8 18.1 5.6 37 7.6 W 9 20 5 11 1012.8 1012.7 0.0
19/04:00pm 21.5 19.3 5.4 35 8.0 WNW 6 9 3 5 1012.7 1012.6 0.0
19/03:30pm 21.6 18.2 5.9 36 7.9 W 13 30 7 16 1012.4 1012.3 0.0
19/03:00pm 20.8 17.2 5.2 36 7.7 W 13 30 7 16 1012.4 1012.3 0.0
19/02:30pm 21.5 17.9 5.0 34 8.1 WSW 13 26 7 14 1012.3 1012.2 0.0
19/02:00pm 21.9 19.4 6.6 37 7.8 WSW 9 22 5 12 1012.3 1012.2 0.0
19/01:30pm 22.1 19.9 6.3 36 8.0 W 7 20 4 11 1012.5 1012.4 0.0
19/01:00pm 21.1 17.6 5.5 36 7.8 WSW 13 32 7 17 1012.9 1012.8 0.0
19/12:30pm 20.8 17.9 6.4 39 7.3 W 11 28 6 15 1013.0 1012.9 0.0
19/12:00pm 20.5 16.8 6.5 40 7.1 WSW 15 24 8 13 1013.3 1013.2 0.0
19/11:30am 20.4 17.6 7.1 42 6.8 WSW 11 24 6 13 1013.8 1013.7 0.0
19/11:00am 19.9 17.9 7.0 43 6.5 W 7 15 4 8 1014.2 1014.1 0.0
19/10:30am 19.0 15.7 6.5 44 6.2 W 13 24 7 13 1014.5 1014.4 0.0
19/10:00am 19.0 16.7 7.4 47 5.9 W 9 19 5 10 1014.8 1014.7 0.0
19/09:30am 17.8 15.6 6.3 47 5.7 WSW 7 24 4 13 1014.8 1014.7 0.0
19/09:00am 16.9 14.8 6.7 51 5.0 W 7 17 4 9 1014.9 1014.8 0.0
19/08:30am 16.0 13.9 6.7 54 4.6 WSW 7 15 4 8 1015.1 1015.0 0.0
19/08:00am 15.3 13.8 6.8 57 4.2 WSW 4 13 2 7 1014.8 1014.7 0.0
19/07:30am 14.1 12.6 6.9 62 3.5 WSW 4 13 2 7 1014.8 1014.7 0.0
19/07:00am 11.8 11.3 7.7 76 2.0 CALM 0 0 0 0 1014.7 1014.6 0.0
19/06:30am 11.6 10.7 5.9 68 2.7 CALM 0 0 0 0 1014.4 1014.3 0.0
19/06:00am 12.5 10.4 5.7 63 3.2 WNW 6 9 3 5 1013.9 1013.8 0.0
19/05:30am 12.5 10.4 5.7 63 3.2 WNW 6 13 3 7 1013.7 1013.6 0.0
19/05:00am 12.9 10.8 5.8 62 3.3 WNW 6 15 3 8 1013.5 1013.4 0.0
19/04:30am 13.0 11.5 5.2 59 3.6 NW 2 4 1 2 1013.2 1013.1 0.0
19/04:00am 13.4 12.0 5.6 59 3.7 WNW 2 11 1 6 1012.9 1012.8 0.0
19/03:30am 13.5 11.2 4.9 56 4.0 WSW 6 15 3 8 1012.9 1012.8 0.0
19/03:00am 13.0 11.1 4.7 57 3.8 W 4 7 2 4 1012.9 1012.8 0.0
19/02:30am 13.2 11.6 4.4 55 4.0 SW 2 9 1 5 1012.9 1012.8 0.0
19/02:00am 13.9 12.4 4.8 54 4.2 WSW 2 6 1 3 1013.2 1013.1 0.0
19/01:30am 13.3 11.7 4.7 56 4.0 SSW 2 6 1 3 1013.3 1013.2 0.0
19/01:00am 13.7 11.8 5.1 56 4.0 SW 4 11 2 6 1013.5 1013.4 0.0
19/12:30am 13.6 12.2 5.5 58 3.8 SW 2 7 1 4 1013.6 1013.5 0.0
19/12:00am 12.7 11.2 5.1 60 3.5 ENE 2 11 1 6 1013.7 1013.6 0.0
 
Date/Time
EST
Temp
°C
App
Temp
°C
Dew
Point
Rel
Hum
%
Delta-T
°C
Wind Press
QNH
hPa
Press
MSL
hPa
Rain
since 9 am
mm
Dir
 
Spd
km/h
Gust
km/h
Spd
kts
Gust
kts
18/11:30pm 13.4 11.9 5.1 57 3.9 WSW 2 6 1 3 1013.8 1013.7 0.0
18/11:00pm 14.2 12.7 5.0 54 4.3 S 2 6 1 3 1014.0 1013.9 0.0
18/10:30pm 14.6 12.8 5.4 54 4.4 W 4 7 2 4 1014.0 1013.9 0.0
18/10:00pm 15.0 13.5 5.2 52 4.6 E 2 11 1 6 1014.0 1013.9 0.0
18/09:30pm 14.9 13.6 6.2 56 4.2 E 2 9 1 5 1014.1 1014.0 0.0
18/09:00pm 14.4 13.2 6.3 58 3.9 ENE 2 4 1 2 1013.9 1013.8 0.0
18/08:30pm 13.6 12.5 6.9 64 3.3 NW 2 9 1 5 1013.7 1013.6 0.0
18/08:00pm 13.2 12.4 8.3 72 2.4 NE 2 11 1 6 1013.6 1013.5 0.0
18/07:30pm 13.7 13.1 7.5 66 3.0 CALM 0 6 0 3 1013.3 1013.2 0.0
18/07:00pm 15.2 13.9 6.2 55 4.4 W 2 6 1 3 1012.9 1012.8 0.0
18/06:30pm 16.2 14.4 5.5 49 5.1 WSW 4 9 2 5 1012.4 1012.3 0.0
18/06:00pm 17.2 15.0 5.2 45 5.8 W 6 11 3 6 1011.8 1011.7 0.0
18/05:30pm 17.8 15.0 5.1 43 6.1 WSW 9 26 5 14 1011.3 1011.2 0.0
18/05:00pm 18.5 16.1 5.4 42 6.4 W 7 24 4 13 1010.8 1010.7 0.0
18/04:30pm 20.6 17.9 5.8 38 7.4 WSW 9 17 5 9 1010.2 1010.1 0.0
18/04:00pm 20.6 17.8 5.0 36 7.7 WSW 9 19 5 10 1009.6 1009.5 0.0
18/03:30pm 20.9 17.7 5.3 36 7.7 W 11 19 6 10 1009.3 1009.2 0.0
18/03:00pm 20.9 17.7 5.3 36 7.7 WNW 11 22 6 12 1009.1 1009.0 0.0
18/02:30pm 21.4 18.3 5.7 36 7.9 WNW 11 24 6 13 1009.0 1008.9 0.0
18/02:00pm 20.4 16.3 4.4 35 7.8 W 15 28 8 15 1009.2 1009.1 0.0
18/01:30pm 20.5 16.8 4.5 35 7.8 WNW 13 22 7 12 1009.4 1009.3 0.0
18/01:00pm 20.0 15.1 4.9 37 7.4 WNW 20 30 11 16 1009.7 1009.6 0.0
18/12:30pm 19.9 16.9 5.9 40 7.0 WSW 11 22 6 12 1010.2 1010.1 0.0
18/12:00pm 18.9 15.8 5.4 41 6.6 W 11 24 6 13 1010.7 1010.6 0.0
18/11:30am 19.4 15.3 6.2 42 6.6 WNW 17 30 9 16 1011.2 1011.1 0.0
18/11:00am 19.5 15.3 7.6 46 6.1 WNW 19 35 10 19 1011.7 1011.6 0.0
18/10:30am 19.0 15.5 7.1 46 6.0 WNW 15 33 8 18 1012.1 1012.0 0.0
18/10:00am 18.0 14.8 6.8 48 5.6 WNW 13 24 7 13 1012.2 1012.1 0.0
18/09:30am 17.7 15.7 6.9 49 5.4 W 7 17 4 9 1012.4 1012.3 0.0
18/09:00am 16.7 12.1 6.5 51 5.0 WSW 20 32 11 17 1012.3 1012.2 0.0
18/08:30am 16.3 14.0 7.5 56 4.4 W 9 17 5 9 1012.2 1012.1 0.0
18/08:00am 13.9 13.4 7.9 67 3.0 CALM 0 4 0 2 1012.4 1012.3 0.0
18/07:30am 10.9 10.4 8.0 82 1.4 CALM 0 2 0 1 1012.2 1012.1 0.0
18/07:00am 11.1 9.6 6.6 74 2.1 W 4 7 2 4 1012.2 1012.1 0.0
18/06:30am 10.2 8.9 6.0 75 1.9 WNW 2 6 1 3 1012.0 1011.9 0.0
18/06:00am 10.7 9.0 5.9 72 2.2 W 4 7 2 4 1011.7 1011.6 0.0
18/05:30am 10.2 8.9 5.8 74 2.0 W 2 4 1 2 1011.5 1011.4 0.0
18/05:00am 10.4 8.2 5.4 71 2.3 W 6 9 3 5 1011.4 1011.3 0.0
18/04:30am 9.2 8.2 5.4 77 1.7 CALM 0 0 0 0 1011.1 1011.0 0.0
18/04:00am 9.8 8.8 5.8 76 1.8 CALM 0 4 0 2 1011.0 1010.9 0.0
18/03:30am 10.2 8.8 5.4 72 2.2 W 2 6 1 3 1011.3 1011.2 0.0
18/03:00am 9.7 8.7 5.7 76 1.8 CALM 0 2 0 1 1011.4 1011.3 0.0
18/02:30am 8.8 7.8 5.5 80 1.5 CALM 0 2 0 1 1011.5 1011.4 0.0
18/02:00am 9.2 8.2 5.8 79 1.6 CALM 0 0 0 0 1011.7 1011.6 0.0
18/01:30am 8.8 7.9 6.1 83 1.2 CALM 0 0 0 0 1011.9 1011.8 0.0
18/01:00am 8.9 7.9 5.8 81 1.4 CALM 0 0 0 0 1012.0 1011.9 0.0
18/12:30am 9.2 8.3 5.9 80 1.5 CALM 0 0 0 0 1012.2 1012.1 0.0
18/12:00am 9.4 8.4 5.8 78 1.7 CALM 0 0 0 0 1012.1 1012.0 0.0
 
Date/Time
EST
Temp
°C
App
Temp
°C
Dew
Point
Rel
Hum
%
Delta-T
°C
Wind Press
QNH
hPa
Press
MSL
hPa
Rain
since 9 am
mm
Dir
 
Spd
km/h
Gust
km/h
Spd
kts
Gust
kts
17/11:30pm 9.4 8.5 6.1 80 1.5 CALM 0 0 0 0 1012.4 1012.3 0.0
17/11:00pm 10.1 9.2 6.1 76 1.9 CALM 0 0 0 0 1012.4 1012.3 0.0
17/10:30pm 11.3 10.4 6.2 71 2.4 CALM 0 0 0 0 1012.6 1012.5 0.0
17/10:00pm 11.4 10.4 5.7 68 2.7 CALM 0 0 0 0 1012.5 1012.4 0.0
17/09:30pm 15.2 13.3 3.0 44 5.5 WSW 2 6 1 3 1012.3 1012.2 0.0
17/09:00pm 16.0 13.4 3.1 42 5.9 W 6 9 3 5 1012.3 1012.2 0.0

Other Formats:

Comma delimited format used in spreadsheet applications
http://www.bom.gov.au/fwo/IDQ60801/IDQ60801.95572.axf

JavaScript Object Notation format (JSON) in row-major order
http://www.bom.gov.au/fwo/IDQ60801/IDQ60801.95572.json